Allentown, New Jersey
Current Conditions -  °F | °C
As of 3:58 PM on Friday 24 Oct 2014 (Local Time) from KWRI Reporting Station
Clear Clear  
Wind Chill: 67°   Ceiling: Unl
Heat Index: 67°   Visibility: 10mi
Dew Point: 45°   Wind: 13mph
Humidity: 44%   Direction: 320°NW
Pressure: 29.76"   Gusts: 20mph
Location:  40.18°N, 74.58°W
Report Text: KWRI 241958Z AUTO 32011G17KT 10SM CLR 20/07 A2976 RMK AO2 SLP081 T01960071
Loading
Personal Weather Stations






























Interactive Weather Map New forecast layout! Learn more

10-Day Weather Forecast

Advertisements
Track Severe Weather on mobile